sensor_id;sensor_type;location;lat;lon;timestamp;temperature;humidity
70593;DHT22;58294;42.988;20.338;2023-12-20T00:01:01;77.70;2227.20
70593;DHT22;58294;42.988;20.338;2023-12-20T00:03:27;102.40;2227.20
70593;DHT22;58294;42.988;20.338;2023-12-20T00:05:53;102.40;2227.20
70593;DHT22;58294;42.988;20.338;2023-12-20T00:08:18;102.40;2201.60
70593;DHT22;58294;42.988;20.338;2023-12-20T00:10:44;102.40;2201.60
70593;DHT22;58294;42.988;20.338;2023-12-20T00:13:10;102.40;2201.60
70593;DHT22;58294;42.988;20.338;2023-12-20T00:15:36;102.40;2201.60
70593;DHT22;58294;42.988;20.338;2023-12-20T00:18:02;102.50;2201.60
70593;DHT22;58294;42.988;20.338;2023-12-20T00:20:28;102.50;2201.60
70593;DHT22;58294;42.988;20.338;2023-12-20T00:22:56;102.50;2176.00
70593;DHT22;58294;42.988;20.338;2023-12-20T00:25:23;102.50;2124.80
70593;DHT22;58294;42.988;20.338;2023-12-20T00:27:49;102.50;2150.40
70593;DHT22;58294;42.988;20.338;2023-12-20T00:30:16;102.50;2150.40
70593;DHT22;58294;42.988;20.338;2023-12-20T00:32:42;102.50;2099.20
70593;DHT22;58294;42.988;20.338;2023-12-20T00:35:14;102.50;2099.20
70593;DHT22;58294;42.988;20.338;2023-12-20T00:37:40;102.50;2073.60
70593;DHT22;58294;42.988;20.338;2023-12-20T00:40:06;102.50;2073.60
70593;DHT22;58294;42.988;20.338;2023-12-20T00:42:32;102.40;2099.20
70593;DHT22;58294;42.988;20.338;2023-12-20T00:44:59;102.40;2073.60
70593;DHT22;58294;42.988;20.338;2023-12-20T00:47:25;102.40;2099.20
70593;DHT22;58294;42.988;20.338;2023-12-20T00:49:51;102.40;2073.60
70593;DHT22;58294;42.988;20.338;2023-12-20T00:52:17;77.70;2073.60
70593;DHT22;58294;42.988;20.338;2023-12-20T00:54:44;77.70;2099.20
70593;DHT22;58294;42.988;20.338;2023-12-20T00:57:10;77.70;2099.20
70593;DHT22;58294;42.988;20.338;2023-12-20T00:59:36;77.70;2073.60
70593;DHT22;58294;42.988;20.338;2023-12-20T01:02:02;77.70;2073.60
70593;DHT22;58294;42.988;20.338;2023-12-20T01:04:28;77.70;2073.60
70593;DHT22;58294;42.988;20.338;2023-12-20T01:06:54;77.70;2073.60
70593;DHT22;58294;42.988;20.338;2023-12-20T01:09:20;77.70;2073.60
70593;DHT22;58294;42.988;20.338;2023-12-20T01:11:49;77.70;2048.00
70593;DHT22;58294;42.988;20.338;2023-12-20T01:14:15;77.60;2073.60
70593;DHT22;58294;42.988;20.338;2023-12-20T01:16:41;77.60;2073.60
70593;DHT22;58294;42.988;20.338;2023-12-20T01:19:07;77.60;2099.20
70593;DHT22;58294;42.988;20.338;2023-12-20T01:21:32;77.60;2073.60
70593;DHT22;58294;42.988;20.338;2023-12-20T01:23:58;77.60;2099.20
70593;DHT22;58294;42.988;20.338;2023-12-20T01:26:24;77.60;2099.20
70593;DHT22;58294;42.988;20.338;2023-12-20T01:28:50;77.70;2099.20
70593;DHT22;58294;42.988;20.338;2023-12-20T01:31:16;77.70;2073.60
70593;DHT22;58294;42.988;20.338;2023-12-20T01:33:41;77.70;2099.20
70593;DHT22;58294;42.988;20.338;2023-12-20T01:36:07;77.70;2099.20
70593;DHT22;58294;42.988;20.338;2023-12-20T01:38:33;77.70;2073.60
70593;DHT22;58294;42.988;20.338;2023-12-20T01:40:59;77.70;2048.00
70593;DHT22;58294;42.988;20.338;2023-12-20T01:43:25;77.60;1996.80
70593;DHT22;58294;42.988;20.338;2023-12-20T01:45:51;77.60;2022.40
70593;DHT22;58294;42.988;20.338;2023-12-20T01:48:19;77.50;2022.40
70593;DHT22;58294;42.988;20.338;2023-12-20T01:50:46;77.50;2022.40
70593;DHT22;58294;42.988;20.338;2023-12-20T01:53:12;77.40;2048.00
70593;DHT22;58294;42.988;20.338;2023-12-20T01:55:39;77.50;2048.00
70593;DHT22;58294;42.988;20.338;2023-12-20T01:58:07;77.50;2073.60
70593;DHT22;58294;42.988;20.338;2023-12-20T02:00:34;77.50;2048.00
70593;DHT22;58294;42.988;20.338;2023-12-20T02:03:01;77.50;2073.60
70593;DHT22;58294;42.988;20.338;2023-12-20T02:05:29;77.50;2073.60
70593;DHT22;58294;42.988;20.338;2023-12-20T02:07:55;77.50;2048.00
70593;DHT22;58294;42.988;20.338;2023-12-20T02:10:21;77.40;2048.00
70593;DHT22;58294;42.988;20.338;2023-12-20T02:12:47;77.40;2073.60
70593;DHT22;58294;42.988;20.338;2023-12-20T02:15:13;77.40;2048.00
70593;DHT22;58294;42.988;20.338;2023-12-20T02:17:39;77.40;2048.00
70593;DHT22;58294;42.988;20.338;2023-12-20T02:20:06;77.40;2022.40
70593;DHT22;58294;42.988;20.338;2023-12-20T02:22:32;77.30;2022.40
70593;DHT22;58294;42.988;20.338;2023-12-20T02:24:58;77.30;2022.40
70593;DHT22;58294;42.988;20.338;2023-12-20T02:27:24;77.30;2048.00
70593;DHT22;58294;42.988;20.338;2023-12-20T02:29:50;77.30;2022.40
70593;DHT22;58294;42.988;20.338;2023-12-20T02:32:20;77.30;2048.00
70593;DHT22;58294;42.988;20.338;2023-12-20T02:34:47;77.30;2048.00
70593;DHT22;58294;42.988;20.338;2023-12-20T02:37:13;77.30;2048.00
70593;DHT22;58294;42.988;20.338;2023-12-20T02:39:39;77.30;2073.60
70593;DHT22;58294;42.988;20.338;2023-12-20T02:42:05;77.30;2048.00
70593;DHT22;58294;42.988;20.338;2023-12-20T02:44:31;77.30;2048.00
70593;DHT22;58294;42.988;20.338;2023-12-20T02:46:57;77.30;2048.00
70593;DHT22;58294;42.988;20.338;2023-12-20T02:49:23;77.20;2048.00
70593;DHT22;58294;42.988;20.338;2023-12-20T02:51:48;77.20;2048.00
70593;DHT22;58294;42.988;20.338;2023-12-20T02:54:14;77.20;2048.00
70593;DHT22;58294;42.988;20.338;2023-12-20T02:56:40;77.20;2022.40
70593;DHT22;58294;42.988;20.338;2023-12-20T02:59:06;77.20;2022.40
70593;DHT22;58294;42.988;20.338;2023-12-20T03:01:34;77.20;2022.40
70593;DHT22;58294;42.988;20.338;2023-12-20T03:04:00;77.10;2022.40
70593;DHT22;58294;42.988;20.338;2023-12-20T03:06:26;77.10;2022.40
70593;DHT22;58294;42.988;20.338;2023-12-20T03:08:52;77.10;2048.00
70593;DHT22;58294;42.988;20.338;2023-12-20T03:11:18;77.20;2048.00
70593;DHT22;58294;42.988;20.338;2023-12-20T03:13:44;77.20;2048.00
70593;DHT22;58294;42.988;20.338;2023-12-20T03:16:11;77.20;2022.40
70593;DHT22;58294;42.988;20.338;2023-12-20T03:18:37;77.10;2022.40
70593;DHT22;58294;42.988;20.338;2023-12-20T03:21:04;77.10;2022.40
70593;DHT22;58294;42.988;20.338;2023-12-20T03:23:30;77.10;2022.40
70593;DHT22;58294;42.988;20.338;2023-12-20T03:25:58;77.10;2048.00
70593;DHT22;58294;42.988;20.338;2023-12-20T03:28:24;77.10;2048.00
70593;DHT22;58294;42.988;20.338;2023-12-20T03:30:50;77.10;2048.00
70593;DHT22;58294;42.988;20.338;2023-12-20T03:33:16;77.10;2048.00
70593;DHT22;58294;42.988;20.338;2023-12-20T03:35:42;77.10;2022.40
70593;DHT22;58294;42.988;20.338;2023-12-20T03:38:08;77.10;2022.40
70593;DHT22;58294;42.988;20.338;2023-12-20T03:40:34;77.10;2048.00
70593;DHT22;58294;42.988;20.338;2023-12-20T03:42:59;77.10;2048.00
70593;DHT22;58294;42.988;20.338;2023-12-20T03:45:25;77.20;2048.00
70593;DHT22;58294;42.988;20.338;2023-12-20T03:47:51;77.20;2048.00
70593;DHT22;58294;42.988;20.338;2023-12-20T03:50:25;77.20;2022.40
70593;DHT22;58294;42.988;20.338;2023-12-20T03:52:51;77.10;1996.80
70593;DHT22;58294;42.988;20.338;2023-12-20T03:55:18;77.10;2022.40
70593;DHT22;58294;42.988;20.338;2023-12-20T03:57:44;77.10;1996.80
70593;DHT22;58294;42.988;20.338;2023-12-20T04:00:11;77.10;1996.80
70593;DHT22;58294;42.988;20.338;2023-12-20T04:02:40;77.10;1996.80
70593;DHT22;58294;42.988;20.338;2023-12-20T04:05:07;77.10;2022.40
70593;DHT22;58294;42.988;20.338;2023-12-20T04:07:34;77.10;2022.40
70593;DHT22;58294;42.988;20.338;2023-12-20T04:10:00;77.10;1996.80
70593;DHT22;58294;42.988;20.338;2023-12-20T04:12:28;77.10;1996.80
70593;DHT22;58294;42.988;20.338;2023-12-20T04:14:53;77.00;1996.80
70593;DHT22;58294;42.988;20.338;2023-12-20T04:17:20;77.00;1996.80
70593;DHT22;58294;42.988;20.338;2023-12-20T04:19:48;77.00;1996.80
70593;DHT22;58294;42.988;20.338;2023-12-20T04:22:14;77.00;1996.80
70593;DHT22;58294;42.988;20.338;2023-12-20T04:24:40;77.00;1996.80
70593;DHT22;58294;42.988;20.338;2023-12-20T04:27:08;77.00;1996.80
70593;DHT22;58294;42.988;20.338;2023-12-20T04:29:34;77.00;2022.40
70593;DHT22;58294;42.988;20.338;2023-12-20T04:31:59;77.00;2022.40
70593;DHT22;58294;42.988;20.338;2023-12-20T04:34:25;77.00;2022.40
70593;DHT22;58294;42.988;20.338;2023-12-20T04:36:52;77.00;1996.80
70593;DHT22;58294;42.988;20.338;2023-12-20T04:39:17;77.00;2022.40
70593;DHT22;58294;42.988;20.338;2023-12-20T04:41:43;77.00;2022.40
70593;DHT22;58294;42.988;20.338;2023-12-20T04:44:09;77.00;1996.80
70593;DHT22;58294;42.988;20.338;2023-12-20T04:46:35;77.00;1996.80
70593;DHT22;58294;42.988;20.338;2023-12-20T04:49:01;77.00;2022.40
70593;DHT22;58294;42.988;20.338;2023-12-20T04:51:27;77.00;1996.80
70593;DHT22;58294;42.988;20.338;2023-12-20T04:53:53;77.00;1996.80
70593;DHT22;58294;42.988;20.338;2023-12-20T04:56:19;77.00;1996.80
70593;DHT22;58294;42.988;20.338;2023-12-20T04:58:45;77.00;1996.80
70593;DHT22;58294;42.988;20.338;2023-12-20T05:01:10;77.00;1996.80
70593;DHT22;58294;42.988;20.338;2023-12-20T05:03:37;77.00;2022.40
70593;DHT22;58294;42.988;20.338;2023-12-20T05:06:03;77.00;1996.80
70593;DHT22;58294;42.988;20.338;2023-12-20T05:08:29;77.00;1971.20
70593;DHT22;58294;42.988;20.338;2023-12-20T05:10:55;76.90;1971.20
70593;DHT22;58294;42.988;20.338;2023-12-20T05:13:21;76.90;1971.20
70593;DHT22;58294;42.988;20.338;2023-12-20T05:15:47;76.80;1971.20
70593;DHT22;58294;42.988;20.338;2023-12-20T05:18:13;52.10;1996.80
70593;DHT22;58294;42.988;20.338;2023-12-20T05:20:39;52.10;1996.80
70593;DHT22;58294;42.988;20.338;2023-12-20T05:23:05;52.10;1996.80
70593;DHT22;58294;42.988;20.338;2023-12-20T05:25:31;52.00;1996.80
70593;DHT22;58294;42.988;20.338;2023-12-20T05:27:57;52.00;2022.40
70593;DHT22;58294;42.988;20.338;2023-12-20T05:30:23;52.00;1996.80
70593;DHT22;58294;42.988;20.338;2023-12-20T05:32:49;52.00;1996.80
70593;DHT22;58294;42.988;20.338;2023-12-20T05:35:15;52.00;2022.40
70593;DHT22;58294;42.988;20.338;2023-12-20T05:37:41;52.00;2022.40
70593;DHT22;58294;42.988;20.338;2023-12-20T05:40:07;52.00;2022.40
70593;DHT22;58294;42.988;20.338;2023-12-20T05:42:37;52.00;2022.40
70593;DHT22;58294;42.988;20.338;2023-12-20T05:45:04;52.00;2022.40
70593;DHT22;58294;42.988;20.338;2023-12-20T05:47:30;52.00;2022.40
70593;DHT22;58294;42.988;20.338;2023-12-20T05:49:56;52.10;2048.00
70593;DHT22;58294;42.988;20.338;2023-12-20T05:52:22;52.10;2022.40
70593;DHT22;58294;42.988;20.338;2023-12-20T05:54:48;52.10;2022.40
70593;DHT22;58294;42.988;20.338;2023-12-20T05:57:14;52.10;2022.40
70593;DHT22;58294;42.988;20.338;2023-12-20T05:59:39;52.10;2022.40
70593;DHT22;58294;42.988;20.338;2023-12-20T06:02:05;76.80;2022.40
70593;DHT22;58294;42.988;20.338;2023-12-20T06:04:31;52.10;2022.40
70593;DHT22;58294;42.988;20.338;2023-12-20T06:06:57;76.80;2022.40
70593;DHT22;58294;42.988;20.338;2023-12-20T06:09:23;76.80;2022.40
70593;DHT22;58294;42.988;20.338;2023-12-20T06:11:49;76.80;2022.40
70593;DHT22;58294;42.988;20.338;2023-12-20T06:14:16;76.80;2022.40
70593;DHT22;58294;42.988;20.338;2023-12-20T06:16:41;76.80;1996.80
70593;DHT22;58294;42.988;20.338;2023-12-20T06:19:07;76.80;1996.80
70593;DHT22;58294;42.988;20.338;2023-12-20T06:21:33;76.80;1996.80
70593;DHT22;58294;42.988;20.338;2023-12-20T06:23:59;52.10;1996.80
70593;DHT22;58294;42.988;20.338;2023-12-20T06:26:25;52.10;2022.40
70593;DHT22;58294;42.988;20.338;2023-12-20T06:28:51;76.80;2022.40
70593;DHT22;58294;42.988;20.338;2023-12-20T06:31:17;76.80;2022.40
70593;DHT22;58294;42.988;20.338;2023-12-20T06:33:43;76.80;2022.40
70593;DHT22;58294;42.988;20.338;2023-12-20T06:36:13;76.80;1996.80
70593;DHT22;58294;42.988;20.338;2023-12-20T06:38:39;76.80;1996.80
70593;DHT22;58294;42.988;20.338;2023-12-20T06:41:05;76.80;2022.40
70593;DHT22;58294;42.988;20.338;2023-12-20T06:43:31;76.80;1996.80
70593;DHT22;58294;42.988;20.338;2023-12-20T06:45:58;76.80;2022.40
70593;DHT22;58294;42.988;20.338;2023-12-20T06:48:24;76.90;1996.80
70593;DHT22;58294;42.988;20.338;2023-12-20T06:50:50;76.90;1996.80
70593;DHT22;58294;42.988;20.338;2023-12-20T06:53:15;76.90;1996.80
70593;DHT22;58294;42.988;20.338;2023-12-20T06:55:42;76.90;1996.80
70593;DHT22;58294;42.988;20.338;2023-12-20T06:58:08;76.90;1971.20
70593;DHT22;58294;42.988;20.338;2023-12-20T07:00:34;76.80;1971.20
70593;DHT22;58294;42.988;20.338;2023-12-20T07:03:00;76.80;1996.80
70593;DHT22;58294;42.988;20.338;2023-12-20T07:05:26;76.80;2022.40
70593;DHT22;58294;42.988;20.338;2023-12-20T07:07:53;76.90;2022.40
70593;DHT22;58294;42.988;20.338;2023-12-20T07:10:19;76.90;1996.80
70593;DHT22;58294;42.988;20.338;2023-12-20T07:12:45;76.90;1996.80
70593;DHT22;58294;42.988;20.338;2023-12-20T07:15:11;76.90;1996.80
70593;DHT22;58294;42.988;20.338;2023-12-20T07:17:37;76.90;1996.80
70593;DHT22;58294;42.988;20.338;2023-12-20T07:20:03;77.00;1996.80
70593;DHT22;58294;42.988;20.338;2023-12-20T07:22:30;77.00;1996.80
70593;DHT22;58294;42.988;20.338;2023-12-20T07:24:59;77.00;1996.80
70593;DHT22;58294;42.988;20.338;2023-12-20T07:27:26;77.00;1996.80
70593;DHT22;58294;42.988;20.338;2023-12-20T07:29:53;77.00;1996.80
70593;DHT22;58294;42.988;20.338;2023-12-20T07:32:19;77.00;1971.20
70593;DHT22;58294;42.988;20.338;2023-12-20T07:34:44;77.00;1996.80
70593;DHT22;58294;42.988;20.338;2023-12-20T07:37:11;77.00;2022.40
70593;DHT22;58294;42.988;20.338;2023-12-20T07:39:40;77.10;2022.40
70593;DHT22;58294;42.988;20.338;2023-12-20T07:42:07;77.20;1996.80
70593;DHT22;58294;42.988;20.338;2023-12-20T07:44:33;77.20;2022.40
70593;DHT22;58294;42.988;20.338;2023-12-20T07:47:01;77.30;2022.40
70593;DHT22;58294;42.988;20.338;2023-12-20T07:49:27;77.30;2048.00
70593;DHT22;58294;42.988;20.338;2023-12-20T07:51:53;77.40;1996.80
70593;DHT22;58294;42.988;20.338;2023-12-20T07:54:19;77.40;1971.20
70593;DHT22;58294;42.988;20.338;2023-12-20T07:56:46;77.50;1971.20
70593;DHT22;58294;42.988;20.338;2023-12-20T07:59:12;77.50;1996.80
70593;DHT22;58294;42.988;20.338;2023-12-20T08:01:38;77.50;1971.20
70593;DHT22;58294;42.988;20.338;2023-12-20T08:04:03;77.50;1971.20
70593;DHT22;58294;42.988;20.338;2023-12-20T08:06:29;77.50;1971.20
70593;DHT22;58294;42.988;20.338;2023-12-20T08:08:55;77.50;1996.80
70593;DHT22;58294;42.988;20.338;2023-12-20T08:11:21;77.60;1996.80
70593;DHT22;58294;42.988;20.338;2023-12-20T08:13:47;77.70;1971.20
70593;DHT22;58294;42.988;20.338;2023-12-20T08:16:13;102.40;2022.40
70593;DHT22;58294;42.988;20.338;2023-12-20T08:18:39;102.50;2022.40
70593;DHT22;58294;42.988;20.338;2023-12-20T08:21:06;102.60;1996.80
70593;DHT22;58294;42.988;20.338;2023-12-20T08:23:34;102.60;1996.80
70593;DHT22;58294;42.988;20.338;2023-12-20T08:26:07;102.70;1971.20
70593;DHT22;58294;42.988;20.338;2023-12-20T08:28:33;102.80;1971.20
70593;DHT22;58294;42.988;20.338;2023-12-20T08:30:59;102.80;1971.20
70593;DHT22;58294;42.988;20.338;2023-12-20T08:33:25;102.90;1971.20
70593;DHT22;58294;42.988;20.338;2023-12-20T08:35:51;103.00;1971.20
70593;DHT22;58294;42.988;20.338;2023-12-20T08:38:17;103.10;1945.60
70593;DHT22;58294;42.988;20.338;2023-12-20T08:40:44;103.10;1945.60
70593;DHT22;58294;42.988;20.338;2023-12-20T08:43:10;103.00;1920.00
70593;DHT22;58294;42.988;20.338;2023-12-20T08:45:36;103.10;1945.60
70593;DHT22;58294;42.988;20.338;2023-12-20T08:48:02;103.10;1945.60
70593;DHT22;58294;42.988;20.338;2023-12-20T08:50:28;103.20;1971.20
70593;DHT22;58294;42.988;20.338;2023-12-20T08:52:54;103.30;1971.20
70593;DHT22;58294;42.988;20.338;2023-12-20T08:55:20;128.00;2022.40
70593;DHT22;58294;42.988;20.338;2023-12-20T08:57:46;128.20;1996.80
70593;DHT22;58294;42.988;20.338;2023-12-20T09:00:13;128.30;1971.20
70593;DHT22;58294;42.988;20.338;2023-12-20T09:02:39;128.40;1971.20
70593;DHT22;58294;42.988;20.338;2023-12-20T09:05:05;128.50;1971.20
70593;DHT22;58294;42.988;20.338;2023-12-20T09:07:31;128.60;1945.60
70593;DHT22;58294;42.988;20.338;2023-12-20T09:09:57;128.70;1945.60
70593;DHT22;58294;42.988;20.338;2023-12-20T09:12:23;128.80;1920.00
70593;DHT22;58294;42.988;20.338;2023-12-20T09:14:50;128.80;1920.00
70593;DHT22;58294;42.988;20.338;2023-12-20T09:17:17;128.90;1894.40
70593;DHT22;58294;42.988;20.338;2023-12-20T09:19:44;153.60;1920.00
70593;DHT22;58294;42.988;20.338;2023-12-20T09:22:10;153.60;1894.40
70593;DHT22;58294;42.988;20.338;2023-12-20T09:24:36;153.70;1894.40
70593;DHT22;58294;42.988;20.338;2023-12-20T09:27:02;153.70;1894.40
70593;DHT22;58294;42.988;20.338;2023-12-20T09:29:28;153.80;1920.00
70593;DHT22;58294;42.988;20.338;2023-12-20T09:31:54;153.90;1920.00
70593;DHT22;58294;42.988;20.338;2023-12-20T09:34:20;154.10;1920.00
70593;DHT22;58294;42.988;20.338;2023-12-20T09:36:47;154.10;1868.80
70593;DHT22;58294;42.988;20.338;2023-12-20T09:39:14;154.20;1843.20
70593;DHT22;58294;42.988;20.338;2023-12-20T09:41:43;154.20;1868.80
70593;DHT22;58294;42.988;20.338;2023-12-20T09:44:15;154.30;1843.20
70593;DHT22;58294;42.988;20.338;2023-12-20T09:46:44;154.30;1843.20
70593;DHT22;58294;42.988;20.338;2023-12-20T09:49:11;154.30;1843.20
70593;DHT22;58294;42.988;20.338;2023-12-20T09:51:38;154.40;1843.20
70593;DHT22;58294;42.988;20.338;2023-12-20T09:54:05;154.50;1843.20
70593;DHT22;58294;42.988;20.338;2023-12-20T09:56:31;179.20;1868.80
70593;DHT22;58294;42.988;20.338;2023-12-20T09:58:57;179.30;1843.20
70593;DHT22;58294;42.988;20.338;2023-12-20T10:01:23;179.40;1817.60
70593;DHT22;58294;42.988;20.338;2023-12-20T10:03:51;179.40;1843.20
70593;DHT22;58294;42.988;20.338;2023-12-20T10:06:18;179.50;1817.60
70593;DHT22;58294;42.988;20.338;2023-12-20T10:08:44;179.50;1817.60
70593;DHT22;58294;42.988;20.338;2023-12-20T10:11:10;179.70;1817.60
70593;DHT22;58294;42.988;20.338;2023-12-20T10:13:40;179.70;1792.00
70593;DHT22;58294;42.988;20.338;2023-12-20T10:16:07;179.70;1766.40
70593;DHT22;58294;42.988;20.338;2023-12-20T10:18:35;179.70;1766.40
70593;DHT22;58294;42.988;20.338;2023-12-20T10:21:01;179.80;1766.40
70593;DHT22;58294;42.988;20.338;2023-12-20T10:23:29;179.80;1792.00
70593;DHT22;58294;42.988;20.338;2023-12-20T10:25:57;179.80;1740.80
70593;DHT22;58294;42.988;20.338;2023-12-20T10:28:26;179.80;1766.40
70593;DHT22;58294;42.988;20.338;2023-12-20T10:30:55;179.80;1766.40
70593;DHT22;58294;42.988;20.338;2023-12-20T10:33:27;180.00;1817.60
70593;DHT22;58294;42.988;20.338;2023-12-20T10:35:55;204.80;1843.20
70593;DHT22;58294;42.988;20.338;2023-12-20T10:38:21;205.10;1894.40
70593;DHT22;58294;42.988;20.338;2023-12-20T10:40:47;205.30;1843.20
70593;DHT22;58294;42.988;20.338;2023-12-20T10:43:15;205.50;1817.60
70593;DHT22;58294;42.988;20.338;2023-12-20T10:45:44;205.60;1766.40
70593;DHT22;58294;42.988;20.338;2023-12-20T10:48:10;205.70;1740.80
70593;DHT22;58294;42.988;20.338;2023-12-20T10:50:41;205.70;1740.80
70593;DHT22;58294;42.988;20.338;2023-12-20T10:53:07;230.40;1715.20
70593;DHT22;58294;42.988;20.338;2023-12-20T10:55:33;230.50;1843.20
70593;DHT22;58294;42.988;20.338;2023-12-20T10:58:07;230.90;1817.60
70593;DHT22;58294;42.988;20.338;2023-12-20T11:00:41;231.20;1920.00
70593;DHT22;58294;42.988;20.338;2023-12-20T11:03:10;256.40;1945.60
70593;DHT22;58294;42.988;20.338;2023-12-20T11:05:44;256.90;1766.40
70593;DHT22;58294;42.988;20.338;2023-12-20T11:08:13;281.90;1766.40
70593;DHT22;58294;42.988;20.338;2023-12-20T11:10:57;281.90;1638.40
70593;DHT22;58294;42.988;20.338;2023-12-20T11:13:31;281.80;1587.20
70593;DHT22;58294;42.988;20.338;2023-12-20T11:15:59;281.60;1587.20
70593;DHT22;58294;42.988;20.338;2023-12-20T11:18:31;282.10;1792.00
70593;DHT22;58294;42.988;20.338;2023-12-20T11:21:06;282.50;1689.60
70593;DHT22;58294;42.988;20.338;2023-12-20T11:23:32;307.40;1689.60
70593;DHT22;58294;42.988;20.338;2023-12-20T11:26:00;307.70;1715.20
70593;DHT22;58294;42.988;20.338;2023-12-20T11:28:27;307.80;1536.00
70593;DHT22;58294;42.988;20.338;2023-12-20T11:30:54;307.70;1484.80
70593;DHT22;58294;42.988;20.338;2023-12-20T11:33:25;307.60;1459.20
70593;DHT22;58294;42.988;20.338;2023-12-20T11:35:51;307.40;1484.80
70593;DHT22;58294;42.988;20.338;2023-12-20T11:38:20;307.40;1484.80
70593;DHT22;58294;42.988;20.338;2023-12-20T11:40:48;307.30;1510.40
70593;DHT22;58294;42.988;20.338;2023-12-20T11:43:37;307.20;1459.20
70593;DHT22;58294;42.988;20.338;2023-12-20T11:46:08;282.30;1433.60
70593;DHT22;58294;42.988;20.338;2023-12-20T11:48:38;282.10;1459.20
70593;DHT22;58294;42.988;20.338;2023-12-20T11:51:12;281.80;1459.20
70593;DHT22;58294;42.988;20.338;2023-12-20T11:53:41;256.90;1433.60
70593;DHT22;58294;42.988;20.338;2023-12-20T11:56:10;256.70;1459.20
70593;DHT22;58294;42.988;20.338;2023-12-20T11:58:36;256.50;1484.80
70593;DHT22;58294;42.988;20.338;2023-12-20T12:01:02;256.30;1484.80
70593;DHT22;58294;42.988;20.338;2023-12-20T12:03:30;256.20;1536.00
70593;DHT22;58294;42.988;20.338;2023-12-20T12:05:55;256.00;1536.00
70593;DHT22;58294;42.988;20.338;2023-12-20T12:08:21;231.30;1536.00
70593;DHT22;58294;42.988;20.338;2023-12-20T12:10:47;231.20;1561.60
70593;DHT22;58294;42.988;20.338;2023-12-20T12:13:14;231.20;1587.20
70593;DHT22;58294;42.988;20.338;2023-12-20T12:15:40;231.30;1612.80
70593;DHT22;58294;42.988;20.338;2023-12-20T12:18:07;231.30;1612.80
70593;DHT22;58294;42.988;20.338;2023-12-20T12:20:33;231.30;1638.40
70593;DHT22;58294;42.988;20.338;2023-12-20T12:23:06;231.30;1638.40
70593;DHT22;58294;42.988;20.338;2023-12-20T12:25:34;231.30;1638.40
70593;DHT22;58294;42.988;20.338;2023-12-20T12:28:01;231.30;1638.40
70593;DHT22;58294;42.988;20.338;2023-12-20T12:30:27;256.00;1664.00
70593;DHT22;58294;42.988;20.338;2023-12-20T12:32:55;256.10;1638.40
70593;DHT22;58294;42.988;20.338;2023-12-20T12:35:21;256.10;1638.40
70593;DHT22;58294;42.988;20.338;2023-12-20T12:37:47;256.10;1664.00
70593;DHT22;58294;42.988;20.338;2023-12-20T12:40:15;256.10;1638.40
70593;DHT22;58294;42.988;20.338;2023-12-20T12:42:42;256.10;1638.40
70593;DHT22;58294;42.988;20.338;2023-12-20T12:45:09;256.10;1664.00
70593;DHT22;58294;42.988;20.338;2023-12-20T12:47:35;256.20;1638.40
70593;DHT22;58294;42.988;20.338;2023-12-20T12:50:02;256.20;1638.40
70593;DHT22;58294;42.988;20.338;2023-12-20T12:52:27;256.30;1612.80
70593;DHT22;58294;42.988;20.338;2023-12-20T12:54:53;256.30;1638.40
70593;DHT22;58294;42.988;20.338;2023-12-20T12:57:19;256.30;1664.00
70593;DHT22;58294;42.988;20.338;2023-12-20T12:59:46;256.30;1638.40
70593;DHT22;58294;42.988;20.338;2023-12-20T13:02:14;256.30;1638.40
70593;DHT22;58294;42.988;20.338;2023-12-20T13:04:41;256.30;1638.40
70593;DHT22;58294;42.988;20.338;2023-12-20T13:07:07;256.40;1664.00
70593;DHT22;58294;42.988;20.338;2023-12-20T13:09:36;256.40;1664.00
70593;DHT22;58294;42.988;20.338;2023-12-20T13:12:02;256.50;1638.40
70593;DHT22;58294;42.988;20.338;2023-12-20T13:14:31;256.50;1638.40
70593;DHT22;58294;42.988;20.338;2023-12-20T13:16:58;256.50;1638.40
70593;DHT22;58294;42.988;20.338;2023-12-20T13:19:24;256.50;1638.40
70593;DHT22;58294;42.988;20.338;2023-12-20T13:21:50;256.50;1638.40
70593;DHT22;58294;42.988;20.338;2023-12-20T13:24:15;256.50;1638.40
70593;DHT22;58294;42.988;20.338;2023-12-20T13:26:41;256.50;1612.80
70593;DHT22;58294;42.988;20.338;2023-12-20T13:29:07;256.40;1612.80
70593;DHT22;58294;42.988;20.338;2023-12-20T13:31:33;256.30;1612.80
70593;DHT22;58294;42.988;20.338;2023-12-20T13:34:02;256.20;1612.80
70593;DHT22;58294;42.988;20.338;2023-12-20T13:36:27;256.10;1612.80
70593;DHT22;58294;42.988;20.338;2023-12-20T13:38:54;256.00;1638.40
70593;DHT22;58294;42.988;20.338;2023-12-20T13:41:20;231.30;1612.80
70593;DHT22;58294;42.988;20.338;2023-12-20T13:43:45;231.20;1612.80
70593;DHT22;58294;42.988;20.338;2023-12-20T13:46:11;231.10;1638.40
70593;DHT22;58294;42.988;20.338;2023-12-20T13:48:37;231.10;1638.40
70593;DHT22;58294;42.988;20.338;2023-12-20T13:51:03;231.00;1638.40
70593;DHT22;58294;42.988;20.338;2023-12-20T13:53:29;230.90;1664.00
70593;DHT22;58294;42.988;20.338;2023-12-20T13:55:55;230.80;1664.00
70593;DHT22;58294;42.988;20.338;2023-12-20T13:58:21;230.80;1689.60
70593;DHT22;58294;42.988;20.338;2023-12-20T14:00:49;230.70;1689.60
70593;DHT22;58294;42.988;20.338;2023-12-20T14:03:16;230.70;1689.60
70593;DHT22;58294;42.988;20.338;2023-12-20T14:05:42;230.60;1689.60
70593;DHT22;58294;42.988;20.338;2023-12-20T14:08:08;230.60;1689.60
70593;DHT22;58294;42.988;20.338;2023-12-20T14:10:35;230.50;1689.60
70593;DHT22;58294;42.988;20.338;2023-12-20T14:13:01;230.40;1715.20
70593;DHT22;58294;42.988;20.338;2023-12-20T14:15:28;230.40;1715.20
70593;DHT22;58294;42.988;20.338;2023-12-20T14:17:54;205.70;1715.20
70593;DHT22;58294;42.988;20.338;2023-12-20T14:20:20;205.60;1715.20
70593;DHT22;58294;42.988;20.338;2023-12-20T14:22:46;205.60;1715.20
70593;DHT22;58294;42.988;20.338;2023-12-20T14:25:13;205.50;1740.80
70593;DHT22;58294;42.988;20.338;2023-12-20T14:27:40;205.50;1740.80
70593;DHT22;58294;42.988;20.338;2023-12-20T14:30:06;205.40;1766.40
70593;DHT22;58294;42.988;20.338;2023-12-20T14:32:34;205.30;1766.40
70593;DHT22;58294;42.988;20.338;2023-12-20T14:35:07;205.30;1740.80
70593;DHT22;58294;42.988;20.338;2023-12-20T14:37:34;205.20;1766.40